sensor_id;sensor_type;location;lat;lon;timestamp;pressure;altitude;pressure_sealevel;temperature;humidity
74633;BME280;63139;52.018;8.552;2022-11-20T00:01:04;100230.00;;;-4.27;84.51
74633;BME280;63139;52.018;8.552;2022-11-20T00:03:32;100242.06;;;-4.27;84.27
74633;BME280;63139;52.018;8.552;2022-11-20T00:06:00;100231.91;;;-4.31;83.87
74633;BME280;63139;52.018;8.552;2022-11-20T00:08:28;100231.06;;;-4.31;84.38
74633;BME280;63139;52.018;8.552;2022-11-20T00:10:56;100214.81;;;-4.33;84.36
74633;BME280;63139;52.018;8.552;2022-11-20T00:13:24;100222.56;;;-4.33;84.85
74633;BME280;63139;52.018;8.552;2022-11-20T00:15:58;100217.41;;;-4.33;85.02
74633;BME280;63139;52.018;8.552;2022-11-20T00:18:26;100219.00;;;-4.31;85.23
74633;BME280;63139;52.018;8.552;2022-11-20T00:21:00;100222.41;;;-4.30;85.12
74633;BME280;63139;52.018;8.552;2022-11-20T00:23:28;100225.00;;;-4.30;85.53
74633;BME280;63139;52.018;8.552;2022-11-20T00:25:56;100213.00;;;-4.31;85.31
74633;BME280;63139;52.018;8.552;2022-11-20T00:28:24;100204.41;;;-4.32;85.18
74633;BME280;63139;52.018;8.552;2022-11-20T00:30:51;100210.50;;;-4.33;84.95
74633;BME280;63139;52.018;8.552;2022-11-20T00:33:21;100213.06;;;-4.33;84.86
74633;BME280;63139;52.018;8.552;2022-11-20T00:35:48;100209.66;;;-4.33;84.57
74633;BME280;63139;52.018;8.552;2022-11-20T00:38:16;100210.56;;;-4.34;84.74
74633;BME280;63139;52.018;8.552;2022-11-20T00:40:44;100202.88;;;-4.36;84.56
74633;BME280;63139;52.018;8.552;2022-11-20T00:43:17;100207.16;;;-4.35;85.04
74633;BME280;63139;52.018;8.552;2022-11-20T00:45:45;100201.91;;;-4.33;85.50
74633;BME280;63139;52.018;8.552;2022-11-20T00:48:13;100207.06;;;-4.33;85.57
74633;BME280;63139;52.018;8.552;2022-11-20T00:50:42;100209.66;;;-4.33;85.59
74633;BME280;63139;52.018;8.552;2022-11-20T00:53:10;100212.25;;;-4.33;84.99
74633;BME280;63139;52.018;8.552;2022-11-20T00:55:37;100215.81;;;-4.36;85.28
74633;BME280;63139;52.018;8.552;2022-11-20T00:58:05;100214.97;;;-4.36;85.15
74633;BME280;63139;52.018;8.552;2022-11-20T01:00:39;100213.41;;;-4.39;85.17
74633;BME280;63139;52.018;8.552;2022-11-20T01:03:07;100209.97;;;-4.39;85.12
74633;BME280;63139;52.018;8.552;2022-11-20T01:05:35;100216.06;;;-4.40;85.33
74633;BME280;63139;52.018;8.552;2022-11-20T01:08:04;100217.03;;;-4.43;85.20
74633;BME280;63139;52.018;8.552;2022-11-20T01:10:32;100216.31;;;-4.45;85.04
74633;BME280;63139;52.018;8.552;2022-11-20T01:13:00;100219.81;;;-4.46;84.84
74633;BME280;63139;52.018;8.552;2022-11-20T01:15:43;100208.72;;;-4.48;85.04
74633;BME280;63139;52.018;8.552;2022-11-20T01:18:10;100204.53;;;-4.50;84.91
74633;BME280;63139;52.018;8.552;2022-11-20T01:20:38;100209.75;;;-4.52;84.95
74633;BME280;63139;52.018;8.552;2022-11-20T01:23:07;100208.03;;;-4.51;84.96
74633;BME280;63139;52.018;8.552;2022-11-20T01:25:35;100205.53;;;-4.53;85.18
74633;BME280;63139;52.018;8.552;2022-11-20T01:28:03;100211.69;;;-4.55;85.03
74633;BME280;63139;52.018;8.552;2022-11-20T01:30:30;100202.34;;;-4.58;85.16
74633;BME280;63139;52.018;8.552;2022-11-20T01:32:58;100201.44;;;-4.57;85.33
74633;BME280;63139;52.018;8.552;2022-11-20T01:35:26;100198.09;;;-4.59;85.17
74633;BME280;63139;52.018;8.552;2022-11-20T01:37:54;100208.41;;;-4.59;85.18
74633;BME280;63139;52.018;8.552;2022-11-20T01:40:23;100209.34;;;-4.60;84.76
74633;BME280;63139;52.018;8.552;2022-11-20T01:42:55;100207.75;;;-4.62;84.64
74633;BME280;63139;52.018;8.552;2022-11-20T01:45:56;100195.91;;;-4.66;83.86
74633;BME280;63139;52.018;8.552;2022-11-20T01:48:27;100189.16;;;-4.69;84.63
74633;BME280;63139;52.018;8.552;2022-11-20T01:50:57;100189.25;;;-4.71;84.43
74633;BME280;63139;52.018;8.552;2022-11-20T01:53:29;100185.91;;;-4.73;84.66
74633;BME280;63139;52.018;8.552;2022-11-20T01:56:01;100185.16;;;-4.75;84.45
74633;BME280;63139;52.018;8.552;2022-11-20T01:58:32;100186.97;;;-4.77;84.57
74633;BME280;63139;52.018;8.552;2022-11-20T02:01:02;100185.22;;;-4.76;84.93
74633;BME280;63139;52.018;8.552;2022-11-20T02:03:31;100181.06;;;-4.79;85.38
74633;BME280;63139;52.018;8.552;2022-11-20T02:06:04;100185.31;;;-4.78;84.93
74633;BME280;63139;52.018;8.552;2022-11-20T02:08:33;100176.72;;;-4.78;85.24
74633;BME280;63139;52.018;8.552;2022-11-20T02:11:03;100181.06;;;-4.79;85.07
74633;BME280;63139;52.018;8.552;2022-11-20T02:13:31;100186.22;;;-4.79;85.14
74633;BME280;63139;52.018;8.552;2022-11-20T02:16:16;100175.97;;;-4.80;84.74
74633;BME280;63139;52.018;8.552;2022-11-20T02:18:46;100178.66;;;-4.82;84.95
74633;BME280;63139;52.018;8.552;2022-11-20T02:21:24;100166.66;;;-4.83;84.97
74633;BME280;63139;52.018;8.552;2022-11-20T02:24:05;100170.97;;;-4.83;85.13
74633;BME280;63139;52.018;8.552;2022-11-20T02:26:37;100168.47;;;-4.85;84.96
74633;BME280;63139;52.018;8.552;2022-11-20T02:29:05;100158.16;;;-4.85;85.21
74633;BME280;63139;52.018;8.552;2022-11-20T02:31:37;100164.22;;;-4.86;85.23
74633;BME280;63139;52.018;8.552;2022-11-20T02:34:05;100156.47;;;-4.86;85.27
74633;BME280;63139;52.018;8.552;2022-11-20T02:36:34;100151.38;;;-4.87;85.32
74633;BME280;63139;52.018;8.552;2022-11-20T02:39:05;100148.81;;;-4.87;85.13
74633;BME280;63139;52.018;8.552;2022-11-20T02:41:34;100147.13;;;-4.88;85.10
74633;BME280;63139;52.018;8.552;2022-11-20T02:44:03;100154.03;;;-4.89;85.03
74633;BME280;63139;52.018;8.552;2022-11-20T02:46:32;100153.31;;;-4.91;84.89
74633;BME280;63139;52.018;8.552;2022-11-20T02:49:01;100154.22;;;-4.92;84.87
74633;BME280;63139;52.018;8.552;2022-11-20T02:51:29;100151.69;;;-4.93;84.89
74633;BME280;63139;52.018;8.552;2022-11-20T02:53:57;100146.63;;;-4.95;84.85
74633;BME280;63139;52.018;8.552;2022-11-20T02:56:27;100147.44;;;-4.94;85.05
74633;BME280;63139;52.018;8.552;2022-11-20T02:58:54;100143.19;;;-4.95;84.88
74633;BME280;63139;52.018;8.552;2022-11-20T03:01:22;100132.03;;;-4.96;85.33
74633;BME280;63139;52.018;8.552;2022-11-20T03:03:50;100136.38;;;-4.96;85.33
74633;BME280;63139;52.018;8.552;2022-11-20T03:06:20;100132.97;;;-4.97;85.33
74633;BME280;63139;52.018;8.552;2022-11-20T03:08:48;100120.06;;;-4.97;85.52
74633;BME280;63139;52.018;8.552;2022-11-20T03:11:16;100127.81;;;-4.97;85.52
74633;BME280;63139;52.018;8.552;2022-11-20T03:13:46;100122.66;;;-4.97;85.18
74633;BME280;63139;52.018;8.552;2022-11-20T03:16:15;100121.81;;;-4.97;84.91
74633;BME280;63139;52.018;8.552;2022-11-20T03:18:43;100121.06;;;-4.99;85.07
74633;BME280;63139;52.018;8.552;2022-11-20T03:21:12;100123.63;;;-4.99;84.96
74633;BME280;63139;52.018;8.552;2022-11-20T03:23:40;100123.72;;;-5.01;85.31
74633;BME280;63139;52.018;8.552;2022-11-20T03:26:10;100128.94;;;-5.02;84.94
74633;BME280;63139;52.018;8.552;2022-11-20T03:28:39;100123.97;;;-5.05;84.83
74633;BME280;63139;52.018;8.552;2022-11-20T03:31:10;100130.78;;;-5.04;84.80
74633;BME280;63139;52.018;8.552;2022-11-20T03:33:39;100128.28;;;-5.06;84.68
74633;BME280;63139;52.018;8.552;2022-11-20T03:36:08;100118.94;;;-5.09;84.46
74633;BME280;63139;52.018;8.552;2022-11-20T03:38:37;100120.75;;;-5.11;84.73
74633;BME280;63139;52.018;8.552;2022-11-20T03:41:07;100121.69;;;-5.12;85.10
74633;BME280;63139;52.018;8.552;2022-11-20T03:43:35;100119.84;;;-5.10;85.47
74633;BME280;63139;52.018;8.552;2022-11-20T03:46:03;100113.03;;;-5.11;86.01
74633;BME280;63139;52.018;8.552;2022-11-20T03:48:33;100115.59;;;-5.11;85.84
74633;BME280;63139;52.018;8.552;2022-11-20T03:51:08;100123.34;;;-5.11;84.91
74633;BME280;63139;52.018;8.552;2022-11-20T03:53:36;100116.53;;;-5.12;84.89
74633;BME280;63139;52.018;8.552;2022-11-20T03:56:05;100117.53;;;-5.14;85.03
74633;BME280;63139;52.018;8.552;2022-11-20T03:58:33;100111.59;;;-5.16;84.53
74633;BME280;63139;52.018;8.552;2022-11-20T04:01:05;100116.75;;;-5.16;84.72
74633;BME280;63139;52.018;8.552;2022-11-20T04:03:35;100115.09;;;-5.17;85.04
74633;BME280;63139;52.018;8.552;2022-11-20T04:06:04;100121.16;;;-5.18;85.08
74633;BME280;63139;52.018;8.552;2022-11-20T04:08:33;100121.25;;;-5.20;84.73
74633;BME280;63139;52.018;8.552;2022-11-20T04:11:11;100118.75;;;-5.21;85.22
74633;BME280;63139;52.018;8.552;2022-11-20T04:13:40;100113.66;;;-5.23;85.41
74633;BME280;63139;52.018;8.552;2022-11-20T04:16:09;100118.88;;;-5.24;84.93
74633;BME280;63139;52.018;8.552;2022-11-20T04:18:38;100117.22;;;-5.25;84.78
74633;BME280;63139;52.018;8.552;2022-11-20T04:21:06;100118.03;;;-5.25;85.08
74633;BME280;63139;52.018;8.552;2022-11-20T04:23:34;100125.88;;;-5.26;85.00
74633;BME280;63139;52.018;8.552;2022-11-20T04:26:03;100130.09;;;-5.25;85.05
74633;BME280;63139;52.018;8.552;2022-11-20T04:28:31;100122.31;;;-5.24;84.89
74633;BME280;63139;52.018;8.552;2022-11-20T04:31:03;100117.22;;;-5.25;84.77
74633;BME280;63139;52.018;8.552;2022-11-20T04:33:31;100111.22;;;-5.26;85.19
74633;BME280;63139;52.018;8.552;2022-11-20T04:36:06;100118.94;;;-5.26;85.27
74633;BME280;63139;52.018;8.552;2022-11-20T04:38:34;100115.47;;;-5.25;85.10
74633;BME280;63139;52.018;8.552;2022-11-20T04:41:04;100111.16;;;-5.24;85.17
74633;BME280;63139;52.018;8.552;2022-11-20T04:43:33;100106.16;;;-5.27;84.85
74633;BME280;63139;52.018;8.552;2022-11-20T04:46:01;100100.16;;;-5.28;84.68
74633;BME280;63139;52.018;8.552;2022-11-20T04:48:29;100107.00;;;-5.27;84.81
74633;BME280;63139;52.018;8.552;2022-11-20T04:50:57;100108.81;;;-5.29;84.70
74633;BME280;63139;52.018;8.552;2022-11-20T04:53:26;100113.97;;;-5.29;85.09
74633;BME280;63139;52.018;8.552;2022-11-20T04:55:59;100107.97;;;-5.29;85.29
74633;BME280;63139;52.018;8.552;2022-11-20T04:58:27;100110.63;;;-5.31;84.91
74633;BME280;63139;52.018;8.552;2022-11-20T05:01:01;100111.53;;;-5.32;84.65
74633;BME280;63139;52.018;8.552;2022-11-20T05:03:29;100110.69;;;-5.32;84.61
74633;BME280;63139;52.018;8.552;2022-11-20T05:06:00;100106.44;;;-5.33;84.87
74633;BME280;63139;52.018;8.552;2022-11-20T05:08:30;100107.22;;;-5.31;84.61
74633;BME280;63139;52.018;8.552;2022-11-20T05:11:01;100104.69;;;-5.33;84.89
74633;BME280;63139;52.018;8.552;2022-11-20T05:13:29;100108.22;;;-5.34;84.75
74633;BME280;63139;52.018;8.552;2022-11-20T05:16:01;100119.34;;;-5.33;84.36
74633;BME280;63139;52.018;8.552;2022-11-20T05:18:29;100123.75;;;-5.35;84.24
74633;BME280;63139;52.018;8.552;2022-11-20T05:20:57;100119.44;;;-5.35;84.47
74633;BME280;63139;52.018;8.552;2022-11-20T05:23:25;100116.09;;;-5.37;84.30
74633;BME280;63139;52.018;8.552;2022-11-20T05:25:57;100117.84;;;-5.37;84.32
74633;BME280;63139;52.018;8.552;2022-11-20T05:28:26;100114.44;;;-5.38;84.25
74633;BME280;63139;52.018;8.552;2022-11-20T05:30:54;100111.00;;;-5.38;84.22
74633;BME280;63139;52.018;8.552;2022-11-20T05:33:22;100105.09;;;-5.40;84.23
74633;BME280;63139;52.018;8.552;2022-11-20T05:35:50;100110.25;;;-5.40;83.89
74633;BME280;63139;52.018;8.552;2022-11-20T05:38:18;100098.28;;;-5.41;84.19
74633;BME280;63139;52.018;8.552;2022-11-20T05:40:45;100103.44;;;-5.41;84.28
74633;BME280;63139;52.018;8.552;2022-11-20T05:43:14;100094.94;;;-5.43;83.75
74633;BME280;63139;52.018;8.552;2022-11-20T05:45:42;100090.63;;;-5.43;84.17
74633;BME280;63139;52.018;8.552;2022-11-20T05:48:10;100089.84;;;-5.45;83.66
74633;BME280;63139;52.018;8.552;2022-11-20T05:50:37;100098.44;;;-5.44;84.07
74633;BME280;63139;52.018;8.552;2022-11-20T05:53:05;100101.06;;;-5.46;84.18
74633;BME280;63139;52.018;8.552;2022-11-20T05:55:33;100084.78;;;-5.47;84.04
74633;BME280;63139;52.018;8.552;2022-11-20T05:58:01;100089.94;;;-5.47;83.98
74633;BME280;63139;52.018;8.552;2022-11-20T06:00:30;100085.59;;;-5.46;83.82
74633;BME280;63139;52.018;8.552;2022-11-20T06:02:57;100083.09;;;-5.48;83.77
74633;BME280;63139;52.018;8.552;2022-11-20T06:05:25;100082.25;;;-5.48;83.84
74633;BME280;63139;52.018;8.552;2022-11-20T06:07:53;100084.03;;;-5.49;83.40
74633;BME280;63139;52.018;8.552;2022-11-20T06:10:21;100090.09;;;-5.50;83.53
74633;BME280;63139;52.018;8.552;2022-11-20T06:12:48;100084.09;;;-5.50;83.43
74633;BME280;63139;52.018;8.552;2022-11-20T06:15:16;100086.00;;;-5.54;83.21
74633;BME280;63139;52.018;8.552;2022-11-20T06:17:45;100090.31;;;-5.54;82.94
74633;BME280;63139;52.018;8.552;2022-11-20T06:20:13;100092.97;;;-5.56;83.20
74633;BME280;63139;52.018;8.552;2022-11-20T06:22:41;100093.91;;;-5.57;83.38
74633;BME280;63139;52.018;8.552;2022-11-20T06:25:09;100093.06;;;-5.57;83.70
74633;BME280;63139;52.018;8.552;2022-11-20T06:27:36;100081.84;;;-5.56;84.02
74633;BME280;63139;52.018;8.552;2022-11-20T06:30:05;100080.06;;;-5.56;84.13
74633;BME280;63139;52.018;8.552;2022-11-20T06:32:33;100088.56;;;-5.54;84.16
74633;BME280;63139;52.018;8.552;2022-11-20T06:35:03;100089.41;;;-5.53;83.67
74633;BME280;63139;52.018;8.552;2022-11-20T06:37:30;100084.25;;;-5.53;83.97
74633;BME280;63139;52.018;8.552;2022-11-20T06:39:58;100086.81;;;-5.53;83.46
74633;BME280;63139;52.018;8.552;2022-11-20T06:42:26;100084.19;;;-5.52;83.33
74633;BME280;63139;52.018;8.552;2022-11-20T06:44:53;100081.59;;;-5.52;83.53
74633;BME280;63139;52.018;8.552;2022-11-20T06:47:21;100079.84;;;-5.51;83.66
74633;BME280;63139;52.018;8.552;2022-11-20T06:49:49;100076.38;;;-5.50;83.68
74633;BME280;63139;52.018;8.552;2022-11-20T06:52:18;100078.03;;;-5.49;82.74
74633;BME280;63139;52.018;8.552;2022-11-20T06:54:46;100076.31;;;-5.49;83.10
74633;BME280;63139;52.018;8.552;2022-11-20T06:57:13;100080.53;;;-5.48;83.03
74633;BME280;63139;52.018;8.552;2022-11-20T06:59:41;100085.69;;;-5.48;83.05
74633;BME280;63139;52.018;8.552;2022-11-20T07:02:09;100087.22;;;-5.43;83.45
74633;BME280;63139;52.018;8.552;2022-11-20T07:04:38;100090.63;;;-5.43;82.92
74633;BME280;63139;52.018;8.552;2022-11-20T07:07:06;100091.38;;;-5.41;83.26
74633;BME280;63139;52.018;8.552;2022-11-20T07:09:35;100093.78;;;-5.38;83.31
74633;BME280;63139;52.018;8.552;2022-11-20T07:12:03;100094.50;;;-5.34;83.19
74633;BME280;63139;52.018;8.552;2022-11-20T07:14:31;100098.56;;;-5.30;83.28
74633;BME280;63139;52.018;8.552;2022-11-20T07:16:58;100097.34;;;-5.23;83.62
74633;BME280;63139;52.018;8.552;2022-11-20T07:19:26;100099.78;;;-5.20;83.46
74633;BME280;63139;52.018;8.552;2022-11-20T07:21:54;100097.84;;;-5.17;83.66
74633;BME280;63139;52.018;8.552;2022-11-20T07:24:22;100101.06;;;-5.12;83.57
74633;BME280;63139;52.018;8.552;2022-11-20T07:26:51;100106.63;;;-5.03;83.17
74633;BME280;63139;52.018;8.552;2022-11-20T07:29:18;100111.25;;;-4.93;83.68
74633;BME280;63139;52.018;8.552;2022-11-20T07:31:46;100107.09;;;-4.80;84.48
74633;BME280;63139;52.018;8.552;2022-11-20T07:34:14;100113.81;;;-4.60;85.96
74633;BME280;63139;52.018;8.552;2022-11-20T07:36:42;100112.31;;;-4.33;86.75
74633;BME280;63139;52.018;8.552;2022-11-20T07:39:10;100114.22;;;-4.05;88.21
74633;BME280;63139;52.018;8.552;2022-11-20T07:41:38;100107.19;;;-3.71;89.09
74633;BME280;63139;52.018;8.552;2022-11-20T07:44:07;100098.38;;;-3.39;89.44
74633;BME280;63139;52.018;8.552;2022-11-20T07:46:34;100099.16;;;-3.08;89.64
74633;BME280;63139;52.018;8.552;2022-11-20T07:49:02;100100.00;;;-2.80;89.53
74633;BME280;63139;52.018;8.552;2022-11-20T07:51:30;100104.50;;;-2.55;89.19
74633;BME280;63139;52.018;8.552;2022-11-20T07:53:58;100102.88;;;-2.29;88.21
74633;BME280;63139;52.018;8.552;2022-11-20T07:56:25;100113.28;;;-2.02;87.98
74633;BME280;63139;52.018;8.552;2022-11-20T07:58:53;100105.69;;;-1.78;86.72
74633;BME280;63139;52.018;8.552;2022-11-20T08:01:23;100092.78;;;-1.53;86.53
74633;BME280;63139;52.018;8.552;2022-11-20T08:03:50;100090.41;;;-1.31;85.44
74633;BME280;63139;52.018;8.552;2022-11-20T08:06:18;100089.28;;;-1.14;84.49
74633;BME280;63139;52.018;8.552;2022-11-20T08:08:46;100085.66;;;-0.99;84.04
74633;BME280;63139;52.018;8.552;2022-11-20T08:11:14;100093.66;;;-0.89;83.33
74633;BME280;63139;52.018;8.552;2022-11-20T08:13:59;100090.63;;;-0.83;82.61
74633;BME280;63139;52.018;8.552;2022-11-20T08:16:41;100091.56;;;-0.84;82.80
74633;BME280;63139;52.018;8.552;2022-11-20T08:19:10;100087.41;;;-0.87;82.86
74633;BME280;63139;52.018;8.552;2022-11-20T08:21:37;100086.06;;;-0.92;82.63
74633;BME280;63139;52.018;8.552;2022-11-20T08:24:06;100078.78;;;-1.00;82.70
74633;BME280;63139;52.018;8.552;2022-11-20T08:26:34;100072.16;;;-1.04;82.87
74633;BME280;63139;52.018;8.552;2022-11-20T08:29:04;100074.94;;;-1.07;82.46
74633;BME280;63139;52.018;8.552;2022-11-20T08:31:32;100062.50;;;-1.14;83.44
74633;BME280;63139;52.018;8.552;2022-11-20T08:34:01;100060.81;;;-1.15;83.24
74633;BME280;63139;52.018;8.552;2022-11-20T08:36:35;100068.81;;;-1.19;83.62
74633;BME280;63139;52.018;8.552;2022-11-20T08:39:03;100066.22;;;-1.19;83.25
74633;BME280;63139;52.018;8.552;2022-11-20T08:41:31;100072.25;;;-1.18;83.66
74633;BME280;63139;52.018;8.552;2022-11-20T08:44:01;100066.22;;;-1.19;83.51
74633;BME280;63139;52.018;8.552;2022-11-20T08:46:32;100064.44;;;-1.18;83.42
74633;BME280;63139;52.018;8.552;2022-11-20T08:49:03;100067.69;;;-1.14;83.67
74633;BME280;63139;52.018;8.552;2022-11-20T08:51:31;100066.75;;;-1.13;83.08
74633;BME280;63139;52.018;8.552;2022-11-20T08:53:59;100072.78;;;-1.13;83.55
74633;BME280;63139;52.018;8.552;2022-11-20T08:56:27;100072.44;;;-1.08;83.10
74633;BME280;63139;52.018;8.552;2022-11-20T08:58:55;100068.59;;;-1.03;83.58
74633;BME280;63139;52.018;8.552;2022-11-20T09:01:43;100076.28;;;-0.89;82.61
74633;BME280;63139;52.018;8.552;2022-11-20T09:04:12;100077.13;;;-0.75;82.54
74633;BME280;63139;52.018;8.552;2022-11-20T09:06:40;100073.22;;;-0.57;82.22
74633;BME280;63139;52.018;8.552;2022-11-20T09:09:08;100078.47;;;-0.33;81.64
74633;BME280;63139;52.018;8.552;2022-11-20T09:11:36;100084.72;;;-0.12;80.71
74633;BME280;63139;52.018;8.552;2022-11-20T09:14:04;100085.88;;;0.08;80.51
74633;BME280;63139;52.018;8.552;2022-11-20T09:16:31;100086.69;;;0.21;79.59
74633;BME280;63139;52.018;8.552;2022-11-20T09:18:59;100102.94;;;0.35;79.13
74633;BME280;63139;52.018;8.552;2022-11-20T09:21:48;100082.06;;;0.59;78.82
74633;BME280;63139;52.018;8.552;2022-11-20T09:24:16;100091.00;;;0.79;78.20
74633;BME280;63139;52.018;8.552;2022-11-20T09:26:44;100084.72;;;0.93;77.74
74633;BME280;63139;52.018;8.552;2022-11-20T09:29:12;100076.47;;;1.10;78.01
74633;BME280;63139;52.018;8.552;2022-11-20T09:31:40;100080.16;;;1.19;77.32
74633;BME280;63139;52.018;8.552;2022-11-20T09:34:08;100081.56;;;1.23;76.67
74633;BME280;63139;52.018;8.552;2022-11-20T09:36:36;100075.97;;;1.38;76.46
74633;BME280;63139;52.018;8.552;2022-11-20T09:39:05;100073.84;;;1.54;75.64
74633;BME280;63139;52.018;8.552;2022-11-20T09:41:51;100074.16;;;1.72;75.34
74633;BME280;63139;52.018;8.552;2022-11-20T09:44:35;100073.03;;;1.86;75.09
74633;BME280;63139;52.018;8.552;2022-11-20T09:47:12;100071.75;;;1.91;73.96
74633;BME280;63139;52.018;8.552;2022-11-20T09:49:55;100067.69;;;1.99;74.63
74633;BME280;63139;52.018;8.552;2022-11-20T09:52:32;100062.28;;;2.11;74.41
74633;BME280;63139;52.018;8.552;2022-11-20T09:55:09;100062.22;;;2.22;74.03
74633;BME280;63139;52.018;8.552;2022-11-20T09:57:39;100064.25;;;2.51;73.46
74633;BME280;63139;52.018;8.552;2022-11-20T10:00:10;100057.75;;;2.66;73.30
74633;BME280;63139;52.018;8.552;2022-11-20T10:02:42;100059.25;;;2.68;72.44
74633;BME280;63139;52.018;8.552;2022-11-20T10:05:12;100056.84;;;2.77;73.28
74633;BME280;63139;52.018;8.552;2022-11-20T10:07:46;100056.06;;;2.86;72.33
74633;BME280;63139;52.018;8.552;2022-11-20T10:10:19;100051.22;;;3.02;72.01
74633;BME280;63139;52.018;8.552;2022-11-20T10:13:00;100061.75;;;3.21;71.72
74633;BME280;63139;52.018;8.552;2022-11-20T10:15:45;100045.75;;;3.15;72.10
74633;BME280;63139;52.018;8.552;2022-11-20T10:18:27;100041.88;;;3.09;72.00
74633;BME280;63139;52.018;8.552;2022-11-20T10:21:05;100028.28;;;2.85;71.63
74633;BME280;63139;52.018;8.552;2022-11-20T10:23:55;100030.91;;;2.64;72.32
74633;BME280;63139;52.018;8.552;2022-11-20T10:26:35;100018.94;;;2.41;73.62
74633;BME280;63139;52.018;8.552;2022-11-20T10:29:10;100011.56;;;2.25;73.50
74633;BME280;63139;52.018;8.552;2022-11-20T10:31:41;100012.09;;;2.08;74.36
74633;BME280;63139;52.018;8.552;2022-11-20T10:34:19;99999.34;;;1.93;74.20
74633;BME280;63139;52.018;8.552;2022-11-20T10:36:52;100002.84;;;1.83;73.81
74633;BME280;63139;52.018;8.552;2022-11-20T10:39:28;100004.75;;;1.81;74.45
74633;BME280;63139;52.018;8.552;2022-11-20T10:42:00;99999.28;;;1.84;74.26
74633;BME280;63139;52.018;8.552;2022-11-20T10:44:29;99997.19;;;1.78;73.75
74633;BME280;63139;52.018;8.552;2022-11-20T10:47:21;99994.22;;;1.71;73.10
74633;BME280;63139;52.018;8.552;2022-11-20T10:49:51;99991.97;;;1.67;73.75
74633;BME280;63139;52.018;8.552;2022-11-20T10:52:25;99992.47;;;1.61;74.05
74633;BME280;63139;52.018;8.552;2022-11-20T10:55:06;99979.94;;;1.54;73.63
74633;BME280;63139;52.018;8.552;2022-11-20T10:57:50;99978.63;;;1.49;72.56
74633;BME280;63139;52.018;8.552;2022-11-20T11:00:21;99974.50;;;1.46;74.16
74633;BME280;63139;52.018;8.552;2022-11-20T11:02:49;99982.44;;;1.45;74.34
74633;BME280;63139;52.018;8.552;2022-11-20T11:05:25;99967.97;;;1.41;74.05
74633;BME280;63139;52.018;8.552;2022-11-20T11:07:56;99968.97;;;1.40;74.13
74633;BME280;63139;52.018;8.552;2022-11-20T11:10:31;99974.63;;;1.34;73.64
74633;BME280;63139;52.018;8.552;2022-11-20T11:13:03;99970.03;;;1.37;74.25
74633;BME280;63139;52.018;8.552;2022-11-20T11:15:37;99958.75;;;1.37;74.11
74633;BME280;63139;52.018;8.552;2022-11-20T11:18:08;99958.75;;;1.37;74.31
74633;BME280;63139;52.018;8.552;2022-11-20T11:20:37;99948.44;;;1.35;74.31
74633;BME280;63139;52.018;8.552;2022-11-20T11:23:22;99946.94;;;1.33;74.40
74633;BME280;63139;52.018;8.552;2022-11-20T11:25:56;99954.88;;;1.31;74.11
74633;BME280;63139;52.018;8.552;2022-11-20T11:28:27;99955.09;;;1.28;74.36
74633;BME280;63139;52.018;8.552;2022-11-20T11:30:56;99960.31;;;1.28;74.18
74633;BME280;63139;52.018;8.552;2022-11-20T11:33:24;99956.03;;;1.27;74.44
74633;BME280;63139;52.018;8.552;2022-11-20T11:35:54;99961.25;;;1.27;74.53
74633;BME280;63139;52.018;8.552;2022-11-20T11:38:29;99954.16;;;1.29;74.03
74633;BME280;63139;52.018;8.552;2022-11-20T11:40:58;99960.09;;;1.31;73.93
74633;BME280;63139;52.018;8.552;2022-11-20T11:43:30;99961.47;;;1.35;74.19
74633;BME280;63139;52.018;8.552;2022-11-20T11:46:31;99958.66;;;1.38;73.02
74633;BME280;63139;52.018;8.552;2022-11-20T11:49:13;99958.53;;;1.40;72.51
74633;BME280;63139;52.018;8.552;2022-11-20T11:51:55;99950.81;;;1.38;73.39
74633;BME280;63139;52.018;8.552;2022-11-20T11:54:26;99956.88;;;1.39;73.48
74633;BME280;63139;52.018;8.552;2022-11-20T11:56:59;99947.50;;;1.36;72.95
74633;BME280;63139;52.018;8.552;2022-11-20T11:59:41;99950.00;;;1.38;72.91
74633;BME280;63139;52.018;8.552;2022-11-20T12:02:20;99946.56;;;1.37;73.23
74633;BME280;63139;52.018;8.552;2022-11-20T12:04:56;99949.16;;;1.37;73.12
74633;BME280;63139;52.018;8.552;2022-11-20T12:07:34;99942.16;;;1.38;73.57
74633;BME280;63139;52.018;8.552;2022-11-20T12:10:17;99949.72;;;1.41;73.79
74633;BME280;63139;52.018;8.552;2022-11-20T12:12:51;99945.50;;;1.40;72.92
74633;BME280;63139;52.018;8.552;2022-11-20T12:15:27;99938.50;;;1.40;73.42
74633;BME280;63139;52.018;8.552;2022-11-20T12:17:56;99932.56;;;1.38;73.08
74633;BME280;63139;52.018;8.552;2022-11-20T12:20:26;99937.78;;;1.38;73.23
74633;BME280;63139;52.018;8.552;2022-11-20T12:23:01;99938.50;;;1.40;73.73
74633;BME280;63139;52.018;8.552;2022-11-20T12:25:32;99928.06;;;1.40;73.81
74633;BME280;63139;52.018;8.552;2022-11-20T12:28:13;99925.47;;;1.40;73.32
74633;BME280;63139;52.018;8.552;2022-11-20T12:30:55;99917.88;;;1.37;73.95
74633;BME280;63139;52.018;8.552;2022-11-20T12:33:38;99911.13;;;1.35;73.72
74633;BME280;63139;52.018;8.552;2022-11-20T12:36:19;99912.88;;;1.34;73.94
74633;BME280;63139;52.018;8.552;2022-11-20T12:39:00;99903.56;;;1.32;74.33
74633;BME280;63139;52.018;8.552;2022-11-20T12:41:43;99907.94;;;1.31;74.09
74633;BME280;63139;52.018;8.552;2022-11-20T12:44:52;99901.19;;;1.29;74.11
74633;BME280;63139;52.018;8.552;2022-11-20T12:47:51;99907.94;;;1.31;73.99
74633;BME280;63139;52.018;8.552;2022-11-20T12:50:30;99901.63;;;1.34;74.17
74633;BME280;63139;52.018;8.552;2022-11-20T12:53:27;99895.34;;;1.36;74.27
74633;BME280;63139;52.018;8.552;2022-11-20T12:56:04;99898.56;;;1.40;74.62
74633;BME280;63139;52.018;8.552;2022-11-20T12:58:43;99896.63;;;1.42;74.55
74633;BME280;63139;52.018;8.552;2022-11-20T13:01:23;99893.53;;;1.48;73.61
74633;BME280;63139;52.018;8.552;2022-11-20T13:04:16;99889.72;;;1.52;74.27
74633;BME280;63139;52.018;8.552;2022-11-20T13:06:46;99891.69;;;1.60;74.16
74633;BME280;63139;52.018;8.552;2022-11-20T13:09:18;99890.47;;;1.64;74.46
74633;BME280;63139;52.018;8.552;2022-11-20T13:11:52;99886.81;;;1.66;74.03
74633;BME280;63139;52.018;8.552;2022-11-20T13:14:31;99889.28;;;1.68;73.86
74633;BME280;63139;52.018;8.552;2022-11-20T13:17:05;99878.75;;;1.69;74.17